sensor_id;sensor_type;location;lat;lon;timestamp;temperature;humidity
39825;DHT22;25503;52.532;13.640;2023-04-03T00:01:01;1.30;99.90
39825;DHT22;25503;52.532;13.640;2023-04-03T00:03:26;1.30;99.90
39825;DHT22;25503;52.532;13.640;2023-04-03T00:05:52;1.30;99.90
39825;DHT22;25503;52.532;13.640;2023-04-03T00:08:18;1.30;99.90
39825;DHT22;25503;52.532;13.640;2023-04-03T00:10:44;1.30;99.90
39825;DHT22;25503;52.532;13.640;2023-04-03T00:13:10;1.30;99.90
39825;DHT22;25503;52.532;13.640;2023-04-03T00:15:36;1.20;99.90
39825;DHT22;25503;52.532;13.640;2023-04-03T00:18:02;1.20;99.90
39825;DHT22;25503;52.532;13.640;2023-04-03T00:20:28;1.20;99.90
39825;DHT22;25503;52.532;13.640;2023-04-03T00:22:54;1.20;99.90
39825;DHT22;25503;52.532;13.640;2023-04-03T00:25:21;1.10;99.90
39825;DHT22;25503;52.532;13.640;2023-04-03T00:27:46;1.10;99.90
39825;DHT22;25503;52.532;13.640;2023-04-03T00:30:15;1.10;99.90
39825;DHT22;25503;52.532;13.640;2023-04-03T00:32:41;1.10;99.90
39825;DHT22;25503;52.532;13.640;2023-04-03T00:35:07;1.10;99.90
39825;DHT22;25503;52.532;13.640;2023-04-03T00:37:33;1.00;99.90
39825;DHT22;25503;52.532;13.640;2023-04-03T00:39:59;1.10;99.90
39825;DHT22;25503;52.532;13.640;2023-04-03T00:42:25;1.00;99.90
39825;DHT22;25503;52.532;13.640;2023-04-03T00:47:23;1.00;99.90
39825;DHT22;25503;52.532;13.640;2023-04-03T00:49:50;1.00;99.90
39825;DHT22;25503;52.532;13.640;2023-04-03T00:52:20;0.90;99.90
39825;DHT22;25503;52.532;13.640;2023-04-03T00:54:49;0.90;99.90
39825;DHT22;25503;52.532;13.640;2023-04-03T00:57:16;1.00;99.90
39825;DHT22;25503;52.532;13.640;2023-04-03T00:59:48;1.00;99.90
39825;DHT22;25503;52.532;13.640;2023-04-03T01:02:15;0.90;99.90
39825;DHT22;25503;52.532;13.640;2023-04-03T01:04:45;0.90;99.90
39825;DHT22;25503;52.532;13.640;2023-04-03T01:07:17;0.90;99.90
39825;DHT22;25503;52.532;13.640;2023-04-03T01:09:45;0.90;99.90
39825;DHT22;25503;52.532;13.640;2023-04-03T01:12:32;0.90;99.90
39825;DHT22;25503;52.532;13.640;2023-04-03T01:15:07;0.80;99.90
39825;DHT22;25503;52.532;13.640;2023-04-03T01:25:44;0.60;99.90
39825;DHT22;25503;52.532;13.640;2023-04-03T01:28:13;0.60;99.90
39825;DHT22;25503;52.532;13.640;2023-04-03T01:31:06;0.50;99.90
39825;DHT22;25503;52.532;13.640;2023-04-03T01:33:36;0.50;99.90
39825;DHT22;25503;52.532;13.640;2023-04-03T01:36:06;0.50;99.90
39825;DHT22;25503;52.532;13.640;2023-04-03T01:38:32;0.50;99.90
39825;DHT22;25503;52.532;13.640;2023-04-03T01:40:58;0.50;99.90
39825;DHT22;25503;52.532;13.640;2023-04-03T01:43:26;0.50;99.90
39825;DHT22;25503;52.532;13.640;2023-04-03T01:45:52;0.40;99.90
39825;DHT22;25503;52.532;13.640;2023-04-03T01:48:20;0.40;99.90
39825;DHT22;25503;52.532;13.640;2023-04-03T01:50:46;0.40;99.90
39825;DHT22;25503;52.532;13.640;2023-04-03T01:53:12;0.40;99.90
39825;DHT22;25503;52.532;13.640;2023-04-03T01:55:37;0.40;99.90
39825;DHT22;25503;52.532;13.640;2023-04-03T01:58:03;0.30;99.90
39825;DHT22;25503;52.532;13.640;2023-04-03T02:00:29;0.30;99.90
39825;DHT22;25503;52.532;13.640;2023-04-03T02:02:55;0.30;99.90
39825;DHT22;25503;52.532;13.640;2023-04-03T02:05:21;0.30;99.90
39825;DHT22;25503;52.532;13.640;2023-04-03T02:07:46;0.40;99.90
39825;DHT22;25503;52.532;13.640;2023-04-03T02:10:12;0.30;99.90
39825;DHT22;25503;52.532;13.640;2023-04-03T02:12:38;0.30;99.90
39825;DHT22;25503;52.532;13.640;2023-04-03T02:15:04;0.30;99.90
39825;DHT22;25503;52.532;13.640;2023-04-03T02:17:30;0.30;99.90
39825;DHT22;25503;52.532;13.640;2023-04-03T02:19:56;0.30;99.90
39825;DHT22;25503;52.532;13.640;2023-04-03T02:22:21;0.30;99.90
39825;DHT22;25503;52.532;13.640;2023-04-03T02:24:47;0.30;99.90
39825;DHT22;25503;52.532;13.640;2023-04-03T02:27:14;0.20;99.90
39825;DHT22;25503;52.532;13.640;2023-04-03T02:29:40;0.20;99.90
39825;DHT22;25503;52.532;13.640;2023-04-03T02:32:05;0.20;99.90
39825;DHT22;25503;52.532;13.640;2023-04-03T02:34:31;0.20;99.90
39825;DHT22;25503;52.532;13.640;2023-04-03T02:36:57;0.20;99.90
39825;DHT22;25503;52.532;13.640;2023-04-03T02:39:22;0.20;99.90
39825;DHT22;25503;52.532;13.640;2023-04-03T02:41:48;0.30;99.90
39825;DHT22;25503;52.532;13.640;2023-04-03T02:47:31;0.20;99.90
39825;DHT22;25503;52.532;13.640;2023-04-03T02:49:57;0.20;99.90
39825;DHT22;25503;52.532;13.640;2023-04-03T02:52:23;0.20;99.90
39825;DHT22;25503;52.532;13.640;2023-04-03T02:54:48;0.20;99.90
39825;DHT22;25503;52.532;13.640;2023-04-03T02:57:14;0.20;99.90
39825;DHT22;25503;52.532;13.640;2023-04-03T02:59:40;0.20;99.90
39825;DHT22;25503;52.532;13.640;2023-04-03T03:02:10;0.20;99.90
39825;DHT22;25503;52.532;13.640;2023-04-03T03:04:36;0.10;99.90
39825;DHT22;25503;52.532;13.640;2023-04-03T03:07:02;0.20;99.90
39825;DHT22;25503;52.532;13.640;2023-04-03T03:09:28;0.20;99.90
39825;DHT22;25503;52.532;13.640;2023-04-03T03:11:57;0.20;99.90
39825;DHT22;25503;52.532;13.640;2023-04-03T03:14:23;0.20;99.90
39825;DHT22;25503;52.532;13.640;2023-04-03T03:16:49;0.20;99.90
39825;DHT22;25503;52.532;13.640;2023-04-03T03:19:15;0.20;99.90
39825;DHT22;25503;52.532;13.640;2023-04-03T03:21:41;0.20;99.90
39825;DHT22;25503;52.532;13.640;2023-04-03T03:24:07;0.10;99.90
39825;DHT22;25503;52.532;13.640;2023-04-03T03:26:32;0.20;99.90
39825;DHT22;25503;52.532;13.640;2023-04-03T03:28:58;0.20;99.90
39825;DHT22;25503;52.532;13.640;2023-04-03T03:31:27;0.20;99.90
39825;DHT22;25503;52.532;13.640;2023-04-03T03:33:53;0.10;99.90
39825;DHT22;25503;52.532;13.640;2023-04-03T03:36:18;0.10;99.90
39825;DHT22;25503;52.532;13.640;2023-04-03T03:38:44;0.10;99.90
39825;DHT22;25503;52.532;13.640;2023-04-03T03:41:10;0.00;99.90
39825;DHT22;25503;52.532;13.640;2023-04-03T03:43:35;0.00;99.90
39825;DHT22;25503;52.532;13.640;2023-04-03T03:46:01;0.00;99.90
39825;DHT22;25503;52.532;13.640;2023-04-03T03:48:27;-0.10;99.90
39825;DHT22;25503;52.532;13.640;2023-04-03T03:50:52;-0.10;99.90
39825;DHT22;25503;52.532;13.640;2023-04-03T03:53:18;-0.20;99.90
39825;DHT22;25503;52.532;13.640;2023-04-03T03:55:44;-0.20;99.90
39825;DHT22;25503;52.532;13.640;2023-04-03T03:58:10;-0.20;99.90
39825;DHT22;25503;52.532;13.640;2023-04-03T04:00:36;-0.30;99.90
39825;DHT22;25503;52.532;13.640;2023-04-03T04:03:02;-0.30;99.90
39825;DHT22;25503;52.532;13.640;2023-04-03T04:05:27;-0.30;99.90
39825;DHT22;25503;52.532;13.640;2023-04-03T04:07:53;-0.40;99.90
39825;DHT22;25503;52.532;13.640;2023-04-03T04:10:19;-0.40;99.90
39825;DHT22;25503;52.532;13.640;2023-04-03T04:12:44;-0.40;99.90
39825;DHT22;25503;52.532;13.640;2023-04-03T04:15:10;-0.40;99.90
39825;DHT22;25503;52.532;13.640;2023-04-03T04:17:36;-0.40;99.90
39825;DHT22;25503;52.532;13.640;2023-04-03T04:20:03;-0.40;99.90
39825;DHT22;25503;52.532;13.640;2023-04-03T04:22:30;-0.50;99.90
39825;DHT22;25503;52.532;13.640;2023-04-03T04:24:56;-0.50;99.90
39825;DHT22;25503;52.532;13.640;2023-04-03T04:27:21;-0.50;99.90
39825;DHT22;25503;52.532;13.640;2023-04-03T04:29:47;-0.50;99.90
39825;DHT22;25503;52.532;13.640;2023-04-03T04:32:13;-0.50;99.90
39825;DHT22;25503;52.532;13.640;2023-04-03T04:34:38;-0.60;99.90
39825;DHT22;25503;52.532;13.640;2023-04-03T04:37:04;-0.60;99.90
39825;DHT22;25503;52.532;13.640;2023-04-03T04:39:30;-0.60;99.90
39825;DHT22;25503;52.532;13.640;2023-04-03T04:41:56;-0.60;99.90
39825;DHT22;25503;52.532;13.640;2023-04-03T04:44:22;-0.60;99.90
39825;DHT22;25503;52.532;13.640;2023-04-03T04:46:47;-0.60;99.90
39825;DHT22;25503;52.532;13.640;2023-04-03T04:49:13;-0.70;99.90
39825;DHT22;25503;52.532;13.640;2023-04-03T04:51:39;-0.60;99.90
39825;DHT22;25503;52.532;13.640;2023-04-03T04:54:05;-0.70;99.90
39825;DHT22;25503;52.532;13.640;2023-04-03T04:56:31;-0.70;99.90
39825;DHT22;25503;52.532;13.640;2023-04-03T04:58:56;-0.60;99.90
39825;DHT22;25503;52.532;13.640;2023-04-03T05:01:22;-0.60;99.90
39825;DHT22;25503;52.532;13.640;2023-04-03T05:03:48;-0.60;99.90
39825;DHT22;25503;52.532;13.640;2023-04-03T05:06:14;-0.50;99.90
39825;DHT22;25503;52.532;13.640;2023-04-03T05:08:42;-0.50;99.90
39825;DHT22;25503;52.532;13.640;2023-04-03T05:11:08;-0.50;99.90
39825;DHT22;25503;52.532;13.640;2023-04-03T05:13:34;-0.40;99.90
39825;DHT22;25503;52.532;13.640;2023-04-03T05:16:02;-0.40;99.90
39825;DHT22;25503;52.532;13.640;2023-04-03T05:18:28;-0.30;99.90
39825;DHT22;25503;52.532;13.640;2023-04-03T05:20:54;-0.20;99.90
39825;DHT22;25503;52.532;13.640;2023-04-03T05:23:20;-0.20;99.90
39825;DHT22;25503;52.532;13.640;2023-04-03T05:25:45;-0.10;99.90
39825;DHT22;25503;52.532;13.640;2023-04-03T05:28:12;0.00;99.90
39825;DHT22;25503;52.532;13.640;2023-04-03T05:30:38;0.10;99.90
39825;DHT22;25503;52.532;13.640;2023-04-03T05:33:04;0.20;99.90
39825;DHT22;25503;52.532;13.640;2023-04-03T05:35:29;0.20;99.90
39825;DHT22;25503;52.532;13.640;2023-04-03T05:37:55;0.20;99.90
39825;DHT22;25503;52.532;13.640;2023-04-03T05:40:21;0.30;99.90
39825;DHT22;25503;52.532;13.640;2023-04-03T05:42:47;0.30;99.90
39825;DHT22;25503;52.532;13.640;2023-04-03T05:45:16;0.40;99.90
39825;DHT22;25503;52.532;13.640;2023-04-03T05:47:41;0.40;99.90
39825;DHT22;25503;52.532;13.640;2023-04-03T05:50:07;0.60;99.90
39825;DHT22;25503;52.532;13.640;2023-04-03T05:52:38;0.60;99.90
39825;DHT22;25503;52.532;13.640;2023-04-03T05:55:06;0.70;99.90
39825;DHT22;25503;52.532;13.640;2023-04-03T05:57:31;0.80;99.90
39825;DHT22;25503;52.532;13.640;2023-04-03T05:59:57;0.90;99.90
39825;DHT22;25503;52.532;13.640;2023-04-03T06:02:24;1.00;99.90
39825;DHT22;25503;52.532;13.640;2023-04-03T06:04:51;1.10;99.90
39825;DHT22;25503;52.532;13.640;2023-04-03T06:07:22;1.10;99.90
39825;DHT22;25503;52.532;13.640;2023-04-03T06:09:48;1.20;99.90
39825;DHT22;25503;52.532;13.640;2023-04-03T06:12:18;1.30;99.90
39825;DHT22;25503;52.532;13.640;2023-04-03T06:14:44;1.40;99.90
39825;DHT22;25503;52.532;13.640;2023-04-03T06:17:10;1.40;99.90
39825;DHT22;25503;52.532;13.640;2023-04-03T06:19:37;1.50;99.90
39825;DHT22;25503;52.532;13.640;2023-04-03T06:22:03;1.60;99.90
39825;DHT22;25503;52.532;13.640;2023-04-03T06:24:29;1.70;99.90
39825;DHT22;25503;52.532;13.640;2023-04-03T06:26:56;1.80;99.90
39825;DHT22;25503;52.532;13.640;2023-04-03T06:29:23;1.80;99.90
39825;DHT22;25503;52.532;13.640;2023-04-03T06:31:49;1.90;99.90
39825;DHT22;25503;52.532;13.640;2023-04-03T06:34:18;2.00;99.90
39825;DHT22;25503;52.532;13.640;2023-04-03T06:36:44;2.00;99.90
39825;DHT22;25503;52.532;13.640;2023-04-03T06:39:15;2.10;99.90
39825;DHT22;25503;52.532;13.640;2023-04-03T06:41:43;2.20;99.90
39825;DHT22;25503;52.532;13.640;2023-04-03T06:44:08;2.20;99.90
39825;DHT22;25503;52.532;13.640;2023-04-03T06:46:37;2.30;99.90
39825;DHT22;25503;52.532;13.640;2023-04-03T06:49:04;2.40;99.90
39825;DHT22;25503;52.532;13.640;2023-04-03T06:51:33;2.40;99.90
39825;DHT22;25503;52.532;13.640;2023-04-03T06:53:59;2.60;99.90
39825;DHT22;25503;52.532;13.640;2023-04-03T06:56:26;2.60;99.90
39825;DHT22;25503;52.532;13.640;2023-04-03T06:58:53;2.80;99.90
39825;DHT22;25503;52.532;13.640;2023-04-03T07:01:23;2.80;99.90
39825;DHT22;25503;52.532;13.640;2023-04-03T07:03:49;2.80;99.90
39825;DHT22;25503;52.532;13.640;2023-04-03T07:06:16;2.90;99.90
39825;DHT22;25503;52.532;13.640;2023-04-03T07:08:43;3.00;99.90
39825;DHT22;25503;52.532;13.640;2023-04-03T07:11:10;3.00;99.90
39825;DHT22;25503;52.532;13.640;2023-04-03T07:13:36;3.00;99.90
39825;DHT22;25503;52.532;13.640;2023-04-03T07:16:02;2.90;99.90
39825;DHT22;25503;52.532;13.640;2023-04-03T07:18:30;2.90;99.90
39825;DHT22;25503;52.532;13.640;2023-04-03T07:20:56;2.80;99.90
39825;DHT22;25503;52.532;13.640;2023-04-03T07:23:23;2.90;99.90
39825;DHT22;25503;52.532;13.640;2023-04-03T07:25:50;2.90;99.90
39825;DHT22;25503;52.532;13.640;2023-04-03T07:28:17;2.90;99.90
39825;DHT22;25503;52.532;13.640;2023-04-03T07:30:59;2.90;99.90
39825;DHT22;25503;52.532;13.640;2023-04-03T07:33:25;3.00;99.90
39825;DHT22;25503;52.532;13.640;2023-04-03T07:35:50;3.00;99.90
39825;DHT22;25503;52.532;13.640;2023-04-03T07:38:19;3.10;99.90
39825;DHT22;25503;52.532;13.640;2023-04-03T07:40:46;3.20;99.90
39825;DHT22;25503;52.532;13.640;2023-04-03T07:43:12;3.30;99.90
39825;DHT22;25503;52.532;13.640;2023-04-03T07:45:38;3.40;99.90
39825;DHT22;25503;52.532;13.640;2023-04-03T07:48:04;3.50;99.90
39825;DHT22;25503;52.532;13.640;2023-04-03T07:50:30;3.60;99.90
39825;DHT22;25503;52.532;13.640;2023-04-03T07:52:56;3.70;99.90
39825;DHT22;25503;52.532;13.640;2023-04-03T07:55:23;3.70;99.90
39825;DHT22;25503;52.532;13.640;2023-04-03T07:57:51;3.80;99.90
39825;DHT22;25503;52.532;13.640;2023-04-03T08:00:17;3.90;99.90
39825;DHT22;25503;52.532;13.640;2023-04-03T08:02:44;4.00;99.90
39825;DHT22;25503;52.532;13.640;2023-04-03T08:05:10;4.00;99.90
39825;DHT22;25503;52.532;13.640;2023-04-03T08:07:37;4.00;99.90
39825;DHT22;25503;52.532;13.640;2023-04-03T08:10:03;3.90;99.90
39825;DHT22;25503;52.532;13.640;2023-04-03T08:12:30;3.90;99.90
39825;DHT22;25503;52.532;13.640;2023-04-03T08:14:57;3.90;99.90
39825;DHT22;25503;52.532;13.640;2023-04-03T08:17:24;3.90;99.90
39825;DHT22;25503;52.532;13.640;2023-04-03T08:19:50;3.90;99.90
39825;DHT22;25503;52.532;13.640;2023-04-03T08:22:16;3.90;99.90
39825;DHT22;25503;52.532;13.640;2023-04-03T08:24:41;3.80;99.90
39825;DHT22;25503;52.532;13.640;2023-04-03T08:27:07;3.90;99.90
39825;DHT22;25503;52.532;13.640;2023-04-03T08:29:33;3.90;99.90
39825;DHT22;25503;52.532;13.640;2023-04-03T08:31:58;4.10;99.90
39825;DHT22;25503;52.532;13.640;2023-04-03T08:34:24;4.10;99.90
39825;DHT22;25503;52.532;13.640;2023-04-03T08:36:50;4.20;99.90
39825;DHT22;25503;52.532;13.640;2023-04-03T08:39:16;4.30;99.90
39825;DHT22;25503;52.532;13.640;2023-04-03T08:41:43;4.30;99.90
39825;DHT22;25503;52.532;13.640;2023-04-03T08:49:51;4.40;99.90
39825;DHT22;25503;52.532;13.640;2023-04-03T08:54:57;4.50;99.90
39825;DHT22;25503;52.532;13.640;2023-04-03T08:57:32;4.50;99.90
39825;DHT22;25503;52.532;13.640;2023-04-03T09:00:03;4.50;99.90
39825;DHT22;25503;52.532;13.640;2023-04-03T09:02:34;4.60;99.90
39825;DHT22;25503;52.532;13.640;2023-04-03T09:05:05;4.60;99.90
39825;DHT22;25503;52.532;13.640;2023-04-03T09:07:39;4.80;99.90
39825;DHT22;25503;52.532;13.640;2023-04-03T09:10:11;5.00;99.90
39825;DHT22;25503;52.532;13.640;2023-04-03T09:12:41;5.20;99.90
39825;DHT22;25503;52.532;13.640;2023-04-03T09:15:18;5.40;99.90
39825;DHT22;25503;52.532;13.640;2023-04-03T09:17:47;5.60;99.90
39825;DHT22;25503;52.532;13.640;2023-04-03T09:20:31;5.80;99.90
39825;DHT22;25503;52.532;13.640;2023-04-03T09:23:00;5.90;99.90
39825;DHT22;25503;52.532;13.640;2023-04-03T09:25:28;5.80;99.90
39825;DHT22;25503;52.532;13.640;2023-04-03T09:27:55;5.80;99.90
39825;DHT22;25503;52.532;13.640;2023-04-03T09:30:24;5.70;99.90
39825;DHT22;25503;52.532;13.640;2023-04-03T09:32:53;5.70;99.90
39825;DHT22;25503;52.532;13.640;2023-04-03T09:35:25;5.70;99.90
39825;DHT22;25503;52.532;13.640;2023-04-03T09:37:53;5.80;99.90
39825;DHT22;25503;52.532;13.640;2023-04-03T09:45:44;5.90;99.90
39825;DHT22;25503;52.532;13.640;2023-04-03T09:50:53;5.90;99.90
39825;DHT22;25503;52.532;13.640;2023-04-03T09:53:41;5.90;99.90
39825;DHT22;25503;52.532;13.640;2023-04-03T09:58:50;5.60;99.90
39825;DHT22;25503;52.532;13.640;2023-04-03T10:01:30;5.50;99.90
39825;DHT22;25503;52.532;13.640;2023-04-03T10:06:38;5.40;99.90
39825;DHT22;25503;52.532;13.640;2023-04-03T10:09:27;5.30;99.90
39825;DHT22;25503;52.532;13.640;2023-04-03T10:12:09;5.40;99.90
39825;DHT22;25503;52.532;13.640;2023-04-03T10:21:13;5.60;99.90
39825;DHT22;25503;52.532;13.640;2023-04-03T10:23:45;5.70;99.90
39825;DHT22;25503;52.532;13.640;2023-04-03T10:29:25;5.60;99.90
39825;DHT22;25503;52.532;13.640;2023-04-03T10:35:30;5.60;99.90
39825;DHT22;25503;52.532;13.640;2023-04-03T10:45:55;5.80;99.90
39825;DHT22;25503;52.532;13.640;2023-04-03T10:48:52;5.90;99.90
39825;DHT22;25503;52.532;13.640;2023-04-03T10:57:27;5.70;99.90
39825;DHT22;25503;52.532;13.640;2023-04-03T11:00:00;5.60;99.90
39825;DHT22;25503;52.532;13.640;2023-04-03T11:05:06;5.60;99.90
39825;DHT22;25503;52.532;13.640;2023-04-03T11:07:40;5.60;99.90
39825;DHT22;25503;52.532;13.640;2023-04-03T11:10:47;5.50;99.90
39825;DHT22;25503;52.532;13.640;2023-04-03T11:13:21;5.50;99.90
39825;DHT22;25503;52.532;13.640;2023-04-03T11:15:49;5.40;99.90
39825;DHT22;25503;52.532;13.640;2023-04-03T11:18:35;5.40;99.90
39825;DHT22;25503;52.532;13.640;2023-04-03T11:23:39;5.50;99.90
39825;DHT22;25503;52.532;13.640;2023-04-03T11:26:12;5.60;99.90
39825;DHT22;25503;52.532;13.640;2023-04-03T11:28:39;5.60;99.90
39825;DHT22;25503;52.532;13.640;2023-04-03T11:36:56;5.60;99.90
39825;DHT22;25503;52.532;13.640;2023-04-03T11:41:52;5.70;99.90
39825;DHT22;25503;52.532;13.640;2023-04-03T11:44:37;5.80;99.90
39825;DHT22;25503;52.532;13.640;2023-04-03T11:47:05;6.10;99.90
39825;DHT22;25503;52.532;13.640;2023-04-03T12:05:54;5.60;99.90
39825;DHT22;25503;52.532;13.640;2023-04-03T12:13:35;5.60;99.90
39825;DHT22;25503;52.532;13.640;2023-04-03T12:16:02;5.70;99.90
39825;DHT22;25503;52.532;13.640;2023-04-03T12:21:12;5.80;99.90
39825;DHT22;25503;52.532;13.640;2023-04-03T12:46:18;5.70;99.90
39825;DHT22;25503;52.532;13.640;2023-04-03T12:48:54;5.80;99.90
39825;DHT22;25503;52.532;13.640;2023-04-03T12:54:15;5.90;99.90
39825;DHT22;25503;52.532;13.640;2023-04-03T12:56:42;5.90;99.90
39825;DHT22;25503;52.532;13.640;2023-04-03T12:59:22;5.90;99.90
39825;DHT22;25503;52.532;13.640;2023-04-03T13:02:01;6.00;99.90
39825;DHT22;25503;52.532;13.640;2023-04-03T13:04:28;5.90;99.90
39825;DHT22;25503;52.532;13.640;2023-04-03T13:06:54;6.00;99.90
39825;DHT22;25503;52.532;13.640;2023-04-03T13:09:24;6.10;99.90
39825;DHT22;25503;52.532;13.640;2023-04-03T13:11:59;6.10;99.90
39825;DHT22;25503;52.532;13.640;2023-04-03T13:14:27;6.20;99.90
39825;DHT22;25503;52.532;13.640;2023-04-03T13:17:04;6.20;99.90
39825;DHT22;25503;52.532;13.640;2023-04-03T13:19:31;6.10;99.90
39825;DHT22;25503;52.532;13.640;2023-04-03T13:22:36;6.10;99.90
39825;DHT22;25503;52.532;13.640;2023-04-03T13:25:11;6.10;99.90
39825;DHT22;25503;52.532;13.640;2023-04-03T13:27:39;6.10;99.90
39825;DHT22;25503;52.532;13.640;2023-04-03T13:30:24;6.00;99.90
39825;DHT22;25503;52.532;13.640;2023-04-03T13:32:51;6.00;99.90
39825;DHT22;25503;52.532;13.640;2023-04-03T13:35:26;6.00;99.90
39825;DHT22;25503;52.532;13.640;2023-04-03T13:37:58;6.10;99.90
39825;DHT22;25503;52.532;13.640;2023-04-03T13:40:25;6.10;99.90
39825;DHT22;25503;52.532;13.640;2023-04-03T13:43:03;6.10;99.90
39825;DHT22;25503;52.532;13.640;2023-04-03T13:45:30;6.20;99.90
39825;DHT22;25503;52.532;13.640;2023-04-03T13:48:17;6.20;99.90
39825;DHT22;25503;52.532;13.640;2023-04-03T13:53:33;6.20;99.90
39825;DHT22;25503;52.532;13.640;2023-04-03T13:58:29;6.20;99.90
39825;DHT22;25503;52.532;13.640;2023-04-03T14:01:10;6.20;99.90
39825;DHT22;25503;52.532;13.640;2023-04-03T14:06:21;6.20;99.90
39825;DHT22;25503;52.532;13.640;2023-04-03T14:08:47;6.20;99.90
39825;DHT22;25503;52.532;13.640;2023-04-03T14:11:26;6.40;99.90
39825;DHT22;25503;52.532;13.640;2023-04-03T14:13:55;6.60;99.90
39825;DHT22;25503;52.532;13.640;2023-04-03T14:16:23;6.80;99.90
39825;DHT22;25503;52.532;13.640;2023-04-03T14:18:51;7.00;99.90
39825;DHT22;25503;52.532;13.640;2023-04-03T14:21:19;7.10;99.90
39825;DHT22;25503;52.532;13.640;2023-04-03T14:23:45;7.00;99.90
39825;DHT22;25503;52.532;13.640;2023-04-03T14:26:22;6.90;99.90
39825;DHT22;25503;52.532;13.640;2023-04-03T14:28:51;6.70;99.90
39825;DHT22;25503;52.532;13.640;2023-04-03T14:31:17;6.60;99.90
39825;DHT22;25503;52.532;13.640;2023-04-03T14:33:44;6.40;99.90
39825;DHT22;25503;52.532;13.640;2023-04-03T14:36:15;6.30;99.90
39825;DHT22;25503;52.532;13.640;2023-04-03T14:38:43;6.20;99.90
39825;DHT22;25503;52.532;13.640;2023-04-03T14:41:14;6.00;99.90
39825;DHT22;25503;52.532;13.640;2023-04-03T14:43:40;6.00;99.90
39825;DHT22;25503;52.532;13.640;2023-04-03T14:46:16;6.00;99.90
39825;DHT22;25503;52.532;13.640;2023-04-03T14:48:42;5.90;99.90
39825;DHT22;25503;52.532;13.640;2023-04-03T14:51:13;5.80;99.90
39825;DHT22;25503;52.532;13.640;2023-04-03T14:53:40;5.80;99.90
39825;DHT22;25503;52.532;13.640;2023-04-03T14:56:14;5.70;99.90
39825;DHT22;25503;52.532;13.640;2023-04-03T14:58:41;5.60;99.90
39825;DHT22;25503;52.532;13.640;2023-04-03T15:01:08;5.50;99.90
39825;DHT22;25503;52.532;13.640;2023-04-03T15:03:35;5.50;99.90
39825;DHT22;25503;52.532;13.640;2023-04-03T15:06:01;5.40;99.90
39825;DHT22;25503;52.532;13.640;2023-04-03T15:08:27;5.30;99.90
39825;DHT22;25503;52.532;13.640;2023-04-03T15:10:59;5.30;99.90
39825;DHT22;25503;52.532;13.640;2023-04-03T15:13:26;5.20;99.90
39825;DHT22;25503;52.532;13.640;2023-04-03T15:15:52;5.20;99.90
39825;DHT22;25503;52.532;13.640;2023-04-03T15:18:21;5.20;99.90
39825;DHT22;25503;52.532;13.640;2023-04-03T15:20:47;5.10;99.90
39825;DHT22;25503;52.532;13.640;2023-04-03T15:23:15;5.10;99.90
39825;DHT22;25503;52.532;13.640;2023-04-03T15:25:46;5.10;99.90
39825;DHT22;25503;52.532;13.640;2023-04-03T15:28:19;5.20;99.90
39825;DHT22;25503;52.532;13.640;2023-04-03T15:30:47;5.10;99.90
39825;DHT22;25503;52.532;13.640;2023-04-03T15:33:12;5.10;99.90
39825;DHT22;25503;52.532;13.640;2023-04-03T15:35:38;5.10;99.90
39825;DHT22;25503;52.532;13.640;2023-04-03T15:38:04;5.10;99.90
39825;DHT22;25503;52.532;13.640;2023-04-03T15:40:33;5.00;99.90
39825;DHT22;25503;52.532;13.640;2023-04-03T15:42:58;5.10;99.90
39825;DHT22;25503;52.532;13.640;2023-04-03T15:45:24;5.10;99.90
39825;DHT22;25503;52.532;13.640;2023-04-03T15:47:50;5.20;99.90
39825;DHT22;25503;52.532;13.640;2023-04-03T15:50:16;5.30;99.90
39825;DHT22;25503;52.532;13.640;2023-04-03T15:52:43;5.50;99.90
39825;DHT22;25503;52.532;13.640;2023-04-03T15:55:09;5.50;99.90
39825;DHT22;25503;52.532;13.640;2023-04-03T15:57:34;5.70;99.90
39825;DHT22;25503;52.532;13.640;2023-04-03T16:00:00;5.80;99.90
39825;DHT22;25503;52.532;13.640;2023-04-03T16:02:26;5.90;99.90
39825;DHT22;25503;52.532;13.640;2023-04-03T16:04:54;5.90;99.90
39825;DHT22;25503;52.532;13.640;2023-04-03T16:07:20;5.90;99.90
39825;DHT22;25503;52.532;13.640;2023-04-03T16:09:46;5.90;99.90
39825;DHT22;25503;52.532;13.640;2023-04-03T16:12:12;5.80;99.90
39825;DHT22;25503;52.532;13.640;2023-04-03T16:14:38;5.80;99.90
39825;DHT22;25503;52.532;13.640;2023-04-03T16:17:03;5.80;99.90
39825;DHT22;25503;52.532;13.640;2023-04-03T16:19:29;5.80;99.90
39825;DHT22;25503;52.532;13.640;2023-04-03T16:21:55;5.70;99.90
39825;DHT22;25503;52.532;13.640;2023-04-03T16:24:22;5.50;99.90
39825;DHT22;25503;52.532;13.640;2023-04-03T16:26:47;5.50;99.90
39825;DHT22;25503;52.532;13.640;2023-04-03T16:29:13;5.40;99.90
39825;DHT22;25503;52.532;13.640;2023-04-03T16:31:39;5.30;99.90
39825;DHT22;25503;52.532;13.640;2023-04-03T16:34:05;5.30;99.90
39825;DHT22;25503;52.532;13.640;2023-04-03T16:36:31;5.20;99.90
39825;DHT22;25503;52.532;13.640;2023-04-03T16:38:56;5.10;99.90
39825;DHT22;25503;52.532;13.640;2023-04-03T16:41:22;5.10;99.90
39825;DHT22;25503;52.532;13.640;2023-04-03T16:43:48;5.00;99.90
39825;DHT22;25503;52.532;13.640;2023-04-03T16:46:13;5.00;99.90
39825;DHT22;25503;52.532;13.640;2023-04-03T16:48:39;5.00;99.90
39825;DHT22;25503;52.532;13.640;2023-04-03T16:51:05;5.00;99.90
39825;DHT22;25503;52.532;13.640;2023-04-03T16:53:30;4.90;99.90
39825;DHT22;25503;52.532;13.640;2023-04-03T16:55:59;4.90;99.90
39825;DHT22;25503;52.532;13.640;2023-04-03T16:58:25;4.90;99.90
39825;DHT22;25503;52.532;13.640;2023-04-03T17:00:54;4.80;99.90
39825;DHT22;25503;52.532;13.640;2023-04-03T17:03:20;4.90;99.90
39825;DHT22;25503;52.532;13.640;2023-04-03T17:05:49;4.80;99.90
39825;DHT22;25503;52.532;13.640;2023-04-03T17:08:16;4.80;99.90
39825;DHT22;25503;52.532;13.640;2023-04-03T17:10:42;4.80;99.90
39825;DHT22;25503;52.532;13.640;2023-04-03T17:13:08;4.70;99.90
39825;DHT22;25503;52.532;13.640;2023-04-03T17:15:33;4.70;99.90
39825;DHT22;25503;52.532;13.640;2023-04-03T17:17:59;4.80;99.90
39825;DHT22;25503;52.532;13.640;2023-04-03T17:20:25;4.70;99.90
39825;DHT22;25503;52.532;13.640;2023-04-03T17:22:51;4.70;99.90
39825;DHT22;25503;52.532;13.640;2023-04-03T17:25:17;4.70;99.90
39825;DHT22;25503;52.532;13.640;2023-04-03T17:27:42;4.70;99.90
39825;DHT22;25503;52.532;13.640;2023-04-03T17:30:08;4.60;99.90
39825;DHT22;25503;52.532;13.640;2023-04-03T17:32:34;4.60;99.90
39825;DHT22;25503;52.532;13.640;2023-04-03T17:35:00;4.60;99.90
39825;DHT22;25503;52.532;13.640;2023-04-03T17:37:26;4.60;99.90
39825;DHT22;25503;52.532;13.640;2023-04-03T17:39:51;4.50;99.90
39825;DHT22;25503;52.532;13.640;2023-04-03T17:42:18;4.50;99.90
39825;DHT22;25503;52.532;13.640;2023-04-03T17:44:44;4.50;99.90
39825;DHT22;25503;52.532;13.640;2023-04-03T17:47:09;4.40;99.90
39825;DHT22;25503;52.532;13.640;2023-04-03T17:49:35;4.40;99.90